sensor_id;sensor_type;location;lat;lon;timestamp;P1;durP1;ratioP1;P2;durP2;ratioP2
54201;SDS011;40108;53.152;5.844;2022-08-05T00:01:01;7.35;;;1.70;;
54201;SDS011;40108;53.152;5.844;2022-08-05T00:03:34;8.13;;;1.77;;
54201;SDS011;40108;53.152;5.844;2022-08-05T00:06:00;6.15;;;2.00;;
54201;SDS011;40108;53.152;5.844;2022-08-05T00:08:26;6.47;;;1.58;;
54201;SDS011;40108;53.152;5.844;2022-08-05T00:10:52;5.30;;;1.52;;
54201;SDS011;40108;53.152;5.844;2022-08-05T00:13:17;4.93;;;1.48;;
54201;SDS011;40108;53.152;5.844;2022-08-05T00:15:43;7.32;;;1.60;;
54201;SDS011;40108;53.152;5.844;2022-08-05T00:18:09;5.72;;;1.58;;
54201;SDS011;40108;53.152;5.844;2022-08-05T00:20:34;4.90;;;1.60;;
54201;SDS011;40108;53.152;5.844;2022-08-05T00:23:00;6.80;;;1.73;;
54201;SDS011;40108;53.152;5.844;2022-08-05T00:25:26;5.93;;;1.30;;
54201;SDS011;40108;53.152;5.844;2022-08-05T00:27:52;5.28;;;1.40;;
54201;SDS011;40108;53.152;5.844;2022-08-05T00:30:17;6.32;;;1.50;;
54201;SDS011;40108;53.152;5.844;2022-08-05T00:32:43;6.60;;;1.63;;
54201;SDS011;40108;53.152;5.844;2022-08-05T00:35:09;5.25;;;1.55;;
54201;SDS011;40108;53.152;5.844;2022-08-05T00:37:35;7.90;;;1.58;;
54201;SDS011;40108;53.152;5.844;2022-08-05T00:40:00;7.07;;;2.30;;
54201;SDS011;40108;53.152;5.844;2022-08-05T00:42:33;5.07;;;1.45;;
54201;SDS011;40108;53.152;5.844;2022-08-05T00:45:01;6.95;;;1.65;;
54201;SDS011;40108;53.152;5.844;2022-08-05T00:47:28;6.78;;;1.80;;
54201;SDS011;40108;53.152;5.844;2022-08-05T00:49:53;2.75;;;1.25;;
54201;SDS011;40108;53.152;5.844;2022-08-05T00:52:19;4.07;;;1.60;;
54201;SDS011;40108;53.152;5.844;2022-08-05T00:54:45;6.03;;;1.70;;
54201;SDS011;40108;53.152;5.844;2022-08-05T00:57:11;7.45;;;1.52;;
54201;SDS011;40108;53.152;5.844;2022-08-05T00:59:37;6.28;;;1.90;;
54201;SDS011;40108;53.152;5.844;2022-08-05T01:02:02;4.93;;;1.55;;
54201;SDS011;40108;53.152;5.844;2022-08-05T01:04:28;3.95;;;1.52;;
54201;SDS011;40108;53.152;5.844;2022-08-05T01:06:54;6.95;;;1.80;;
54201;SDS011;40108;53.152;5.844;2022-08-05T01:09:20;4.68;;;1.73;;
54201;SDS011;40108;53.152;5.844;2022-08-05T01:11:47;3.78;;;1.58;;
54201;SDS011;40108;53.152;5.844;2022-08-05T01:16:56;3.35;;;1.30;;
54201;SDS011;40108;53.152;5.844;2022-08-05T01:19:35;7.50;;;2.00;;
54201;SDS011;40108;53.152;5.844;2022-08-05T01:24:56;5.70;;;1.85;;
54201;SDS011;40108;53.152;5.844;2022-08-05T01:30:25;4.97;;;1.95;;
54201;SDS011;40108;53.152;5.844;2022-08-05T01:32:55;3.88;;;1.50;;
54201;SDS011;40108;53.152;5.844;2022-08-05T01:35:24;5.60;;;1.70;;
54201;SDS011;40108;53.152;5.844;2022-08-05T01:37:52;6.13;;;1.73;;
54201;SDS011;40108;53.152;5.844;2022-08-05T01:40:22;6.53;;;1.70;;
54201;SDS011;40108;53.152;5.844;2022-08-05T01:42:50;5.47;;;1.60;;
54201;SDS011;40108;53.152;5.844;2022-08-05T01:45:16;3.67;;;1.70;;
54201;SDS011;40108;53.152;5.844;2022-08-05T01:47:45;4.32;;;1.60;;
54201;SDS011;40108;53.152;5.844;2022-08-05T01:50:16;3.17;;;1.58;;
54201;SDS011;40108;53.152;5.844;2022-08-05T01:52:46;4.55;;;1.80;;
54201;SDS011;40108;53.152;5.844;2022-08-05T01:55:14;5.00;;;2.17;;
54201;SDS011;40108;53.152;5.844;2022-08-05T01:57:42;5.78;;;2.20;;
54201;SDS011;40108;53.152;5.844;2022-08-05T02:00:10;3.90;;;1.80;;
54201;SDS011;40108;53.152;5.844;2022-08-05T02:02:38;4.88;;;1.70;;
54201;SDS011;40108;53.152;5.844;2022-08-05T02:05:08;4.87;;;2.50;;
54201;SDS011;40108;53.152;5.844;2022-08-05T02:07:37;5.30;;;2.30;;
54201;SDS011;40108;53.152;5.844;2022-08-05T02:10:04;4.35;;;2.00;;
54201;SDS011;40108;53.152;5.844;2022-08-05T02:15:08;5.00;;;2.78;;
54201;SDS011;40108;53.152;5.844;2022-08-05T02:17:58;5.97;;;2.42;;
54201;SDS011;40108;53.152;5.844;2022-08-05T02:20:43;5.93;;;2.58;;
54201;SDS011;40108;53.152;5.844;2022-08-05T02:23:13;5.47;;;2.85;;
54201;SDS011;40108;53.152;5.844;2022-08-05T02:25:44;8.55;;;2.92;;
54201;SDS011;40108;53.152;5.844;2022-08-05T02:28:13;4.85;;;3.05;;
54201;SDS011;40108;53.152;5.844;2022-08-05T02:30:47;4.13;;;2.88;;
54201;SDS011;40108;53.152;5.844;2022-08-05T02:33:19;5.38;;;2.92;;
54201;SDS011;40108;53.152;5.844;2022-08-05T02:35:46;5.68;;;2.80;;
54201;SDS011;40108;53.152;5.844;2022-08-05T02:38:13;5.15;;;3.13;;
54201;SDS011;40108;53.152;5.844;2022-08-05T02:40:40;4.18;;;2.50;;
54201;SDS011;40108;53.152;5.844;2022-08-05T02:43:08;5.38;;;2.92;;
54201;SDS011;40108;53.152;5.844;2022-08-05T02:45:35;5.85;;;2.97;;
54201;SDS011;40108;53.152;5.844;2022-08-05T02:48:04;7.22;;;3.38;;
54201;SDS011;40108;53.152;5.844;2022-08-05T02:50:33;5.18;;;2.63;;
54201;SDS011;40108;53.152;5.844;2022-08-05T02:53:00;5.75;;;3.40;;
54201;SDS011;40108;53.152;5.844;2022-08-05T02:55:27;5.85;;;3.83;;
54201;SDS011;40108;53.152;5.844;2022-08-05T02:57:54;5.70;;;4.10;;
54201;SDS011;40108;53.152;5.844;2022-08-05T03:00:22;5.53;;;4.30;;
54201;SDS011;40108;53.152;5.844;2022-08-05T03:02:48;5.40;;;4.25;;
54201;SDS011;40108;53.152;5.844;2022-08-05T03:05:16;7.95;;;3.90;;
54201;SDS011;40108;53.152;5.844;2022-08-05T03:07:43;6.43;;;3.72;;
54201;SDS011;40108;53.152;5.844;2022-08-05T03:10:10;5.80;;;4.05;;
54201;SDS011;40108;53.152;5.844;2022-08-05T03:12:38;5.32;;;3.65;;
54201;SDS011;40108;53.152;5.844;2022-08-05T03:15:06;7.38;;;4.15;;
54201;SDS011;40108;53.152;5.844;2022-08-05T03:17:33;4.05;;;3.63;;
54201;SDS011;40108;53.152;5.844;2022-08-05T03:19:59;8.18;;;4.45;;
54201;SDS011;40108;53.152;5.844;2022-08-05T03:22:25;7.30;;;4.43;;
54201;SDS011;40108;53.152;5.844;2022-08-05T03:24:51;5.00;;;3.92;;
54201;SDS011;40108;53.152;5.844;2022-08-05T03:27:17;5.93;;;4.18;;
54201;SDS011;40108;53.152;5.844;2022-08-05T03:29:44;7.82;;;4.40;;
54201;SDS011;40108;53.152;5.844;2022-08-05T03:32:10;6.20;;;4.22;;
54201;SDS011;40108;53.152;5.844;2022-08-05T03:34:39;6.82;;;4.13;;
54201;SDS011;40108;53.152;5.844;2022-08-05T03:37:05;6.35;;;4.18;;
54201;SDS011;40108;53.152;5.844;2022-08-05T03:39:33;5.35;;;3.45;;
54201;SDS011;40108;53.152;5.844;2022-08-05T03:41:59;6.50;;;3.55;;
54201;SDS011;40108;53.152;5.844;2022-08-05T03:44:25;6.00;;;3.78;;
54201;SDS011;40108;53.152;5.844;2022-08-05T03:46:51;8.52;;;4.18;;
54201;SDS011;40108;53.152;5.844;2022-08-05T03:49:16;4.95;;;3.95;;
54201;SDS011;40108;53.152;5.844;2022-08-05T03:51:44;6.97;;;3.92;;
54201;SDS011;40108;53.152;5.844;2022-08-05T03:56:47;6.40;;;3.90;;
54201;SDS011;40108;53.152;5.844;2022-08-05T03:59:16;7.05;;;3.80;;
54201;SDS011;40108;53.152;5.844;2022-08-05T04:01:47;6.18;;;3.95;;
54201;SDS011;40108;53.152;5.844;2022-08-05T04:04:15;5.60;;;3.72;;
54201;SDS011;40108;53.152;5.844;2022-08-05T04:06:43;5.35;;;3.63;;
54201;SDS011;40108;53.152;5.844;2022-08-05T04:09:11;7.63;;;3.90;;
54201;SDS011;40108;53.152;5.844;2022-08-05T04:11:37;6.22;;;4.10;;
54201;SDS011;40108;53.152;5.844;2022-08-05T04:14:03;9.05;;;3.63;;
54201;SDS011;40108;53.152;5.844;2022-08-05T04:16:31;5.15;;;3.85;;
54201;SDS011;40108;53.152;5.844;2022-08-05T04:18:59;6.30;;;4.32;;
54201;SDS011;40108;53.152;5.844;2022-08-05T04:21:25;9.15;;;4.35;;
54201;SDS011;40108;53.152;5.844;2022-08-05T04:23:51;7.53;;;4.57;;
54201;SDS011;40108;53.152;5.844;2022-08-05T04:26:17;5.85;;;4.32;;
54201;SDS011;40108;53.152;5.844;2022-08-05T04:28:43;7.13;;;4.18;;
54201;SDS011;40108;53.152;5.844;2022-08-05T04:31:09;4.55;;;3.67;;
54201;SDS011;40108;53.152;5.844;2022-08-05T04:33:35;5.53;;;4.20;;
54201;SDS011;40108;53.152;5.844;2022-08-05T04:36:00;6.30;;;4.07;;
54201;SDS011;40108;53.152;5.844;2022-08-05T04:38:26;4.50;;;3.90;;
54201;SDS011;40108;53.152;5.844;2022-08-05T04:40:52;5.20;;;3.83;;
54201;SDS011;40108;53.152;5.844;2022-08-05T04:43:17;5.32;;;4.10;;
54201;SDS011;40108;53.152;5.844;2022-08-05T04:45:43;4.90;;;3.83;;
54201;SDS011;40108;53.152;5.844;2022-08-05T04:48:12;9.23;;;4.15;;
54201;SDS011;40108;53.152;5.844;2022-08-05T04:50:46;4.88;;;4.35;;
54201;SDS011;40108;53.152;5.844;2022-08-05T04:53:13;7.55;;;4.22;;
54201;SDS011;40108;53.152;5.844;2022-08-05T04:55:40;9.43;;;4.88;;
54201;SDS011;40108;53.152;5.844;2022-08-05T04:58:08;7.78;;;4.80;;
54201;SDS011;40108;53.152;5.844;2022-08-05T05:00:35;6.50;;;4.45;;
54201;SDS011;40108;53.152;5.844;2022-08-05T05:03:02;5.00;;;4.15;;
54201;SDS011;40108;53.152;5.844;2022-08-05T05:05:29;7.20;;;4.60;;
54201;SDS011;40108;53.152;5.844;2022-08-05T05:07:56;7.28;;;4.85;;
54201;SDS011;40108;53.152;5.844;2022-08-05T05:10:29;5.22;;;4.65;;
54201;SDS011;40108;53.152;5.844;2022-08-05T05:12:56;8.45;;;4.72;;
54201;SDS011;40108;53.152;5.844;2022-08-05T05:15:22;9.13;;;4.47;;
54201;SDS011;40108;53.152;5.844;2022-08-05T05:17:48;7.00;;;4.93;;
54201;SDS011;40108;53.152;5.844;2022-08-05T05:20:14;8.05;;;4.78;;
54201;SDS011;40108;53.152;5.844;2022-08-05T05:22:39;6.35;;;4.53;;
54201;SDS011;40108;53.152;5.844;2022-08-05T05:25:05;8.48;;;5.00;;
54201;SDS011;40108;53.152;5.844;2022-08-05T05:27:33;7.05;;;4.60;;
54201;SDS011;40108;53.152;5.844;2022-08-05T05:32:32;6.78;;;4.47;;
54201;SDS011;40108;53.152;5.844;2022-08-05T05:35:06;6.82;;;4.18;;
54201;SDS011;40108;53.152;5.844;2022-08-05T05:37:31;8.50;;;4.45;;
54201;SDS011;40108;53.152;5.844;2022-08-05T05:39:57;7.18;;;3.90;;
54201;SDS011;40108;53.152;5.844;2022-08-05T05:42:23;5.10;;;3.70;;
54201;SDS011;40108;53.152;5.844;2022-08-05T05:44:49;4.93;;;3.60;;
54201;SDS011;40108;53.152;5.844;2022-08-05T05:47:14;6.70;;;3.45;;
54201;SDS011;40108;53.152;5.844;2022-08-05T05:49:42;3.63;;;2.70;;
54201;SDS011;40108;53.152;5.844;2022-08-05T05:52:08;6.05;;;3.15;;
54201;SDS011;40108;53.152;5.844;2022-08-05T05:54:34;3.75;;;3.03;;
54201;SDS011;40108;53.152;5.844;2022-08-05T05:56:59;6.18;;;3.03;;
54201;SDS011;40108;53.152;5.844;2022-08-05T05:59:25;6.78;;;2.85;;
54201;SDS011;40108;53.152;5.844;2022-08-05T06:01:51;4.78;;;2.80;;
54201;SDS011;40108;53.152;5.844;2022-08-05T06:04:17;4.60;;;2.70;;
54201;SDS011;40108;53.152;5.844;2022-08-05T06:06:43;4.15;;;2.10;;
54201;SDS011;40108;53.152;5.844;2022-08-05T06:09:09;2.58;;;1.85;;
54201;SDS011;40108;53.152;5.844;2022-08-05T06:11:35;8.48;;;1.83;;
54201;SDS011;40108;53.152;5.844;2022-08-05T06:14:00;4.65;;;1.92;;
54201;SDS011;40108;53.152;5.844;2022-08-05T06:16:26;3.80;;;1.60;;
54201;SDS011;40108;53.152;5.844;2022-08-05T06:18:52;4.07;;;1.63;;
54201;SDS011;40108;53.152;5.844;2022-08-05T06:21:18;6.47;;;1.33;;
54201;SDS011;40108;53.152;5.844;2022-08-05T06:23:43;5.03;;;1.10;;
54201;SDS011;40108;53.152;5.844;2022-08-05T06:26:09;2.75;;;0.85;;
54201;SDS011;40108;53.152;5.844;2022-08-05T06:28:35;3.03;;;0.80;;
54201;SDS011;40108;53.152;5.844;2022-08-05T06:31:01;4.78;;;0.70;;
54201;SDS011;40108;53.152;5.844;2022-08-05T06:33:27;5.68;;;1.15;;
54201;SDS011;40108;53.152;5.844;2022-08-05T06:35:53;4.13;;;0.60;;
54201;SDS011;40108;53.152;5.844;2022-08-05T06:38:19;1.63;;;0.70;;
54201;SDS011;40108;53.152;5.844;2022-08-05T06:40:45;3.28;;;0.60;;
54201;SDS011;40108;53.152;5.844;2022-08-05T06:43:11;5.43;;;1.00;;
54201;SDS011;40108;53.152;5.844;2022-08-05T06:45:37;6.28;;;1.05;;
54201;SDS011;40108;53.152;5.844;2022-08-05T06:48:03;8.60;;;0.98;;
54201;SDS011;40108;53.152;5.844;2022-08-05T06:50:29;4.40;;;0.55;;
54201;SDS011;40108;53.152;5.844;2022-08-05T06:52:55;4.13;;;0.63;;
54201;SDS011;40108;53.152;5.844;2022-08-05T06:55:20;1.52;;;0.50;;
54201;SDS011;40108;53.152;5.844;2022-08-05T06:57:46;3.30;;;0.60;;
54201;SDS011;40108;53.152;5.844;2022-08-05T07:00:12;4.20;;;0.80;;
54201;SDS011;40108;53.152;5.844;2022-08-05T07:02:44;1.42;;;0.45;;
54201;SDS011;40108;53.152;5.844;2022-08-05T07:05:11;2.45;;;0.45;;
54201;SDS011;40108;53.152;5.844;2022-08-05T07:07:38;3.60;;;0.55;;
54201;SDS011;40108;53.152;5.844;2022-08-05T07:10:05;3.00;;;0.50;;
54201;SDS011;40108;53.152;5.844;2022-08-05T07:12:32;2.80;;;0.50;;
54201;SDS011;40108;53.152;5.844;2022-08-05T07:15:17;4.22;;;0.60;;
54201;SDS011;40108;53.152;5.844;2022-08-05T07:18:01;3.20;;;0.60;;
54201;SDS011;40108;53.152;5.844;2022-08-05T07:20:26;3.72;;;0.50;;
54201;SDS011;40108;53.152;5.844;2022-08-05T07:22:52;2.50;;;0.38;;
54201;SDS011;40108;53.152;5.844;2022-08-05T07:25:18;1.98;;;0.50;;
54201;SDS011;40108;53.152;5.844;2022-08-05T07:27:44;3.63;;;0.50;;
54201;SDS011;40108;53.152;5.844;2022-08-05T07:30:09;3.33;;;0.80;;
54201;SDS011;40108;53.152;5.844;2022-08-05T07:32:36;5.05;;;0.75;;
54201;SDS011;40108;53.152;5.844;2022-08-05T07:35:08;1.42;;;0.35;;
54201;SDS011;40108;53.152;5.844;2022-08-05T07:37:38;5.00;;;0.60;;
54201;SDS011;40108;53.152;5.844;2022-08-05T07:40:05;5.53;;;0.70;;
54201;SDS011;40108;53.152;5.844;2022-08-05T07:42:32;2.28;;;0.57;;
54201;SDS011;40108;53.152;5.844;2022-08-05T07:44:58;3.60;;;0.60;;
54201;SDS011;40108;53.152;5.844;2022-08-05T07:47:24;5.03;;;1.13;;
54201;SDS011;40108;53.152;5.844;2022-08-05T07:49:53;1.50;;;0.50;;
54201;SDS011;40108;53.152;5.844;2022-08-05T07:52:21;2.97;;;0.60;;
54201;SDS011;40108;53.152;5.844;2022-08-05T07:54:47;2.65;;;0.50;;
54201;SDS011;40108;53.152;5.844;2022-08-05T07:57:13;4.32;;;0.63;;
54201;SDS011;40108;53.152;5.844;2022-08-05T07:59:38;3.05;;;0.47;;
54201;SDS011;40108;53.152;5.844;2022-08-05T08:02:04;5.07;;;0.50;;
54201;SDS011;40108;53.152;5.844;2022-08-05T08:04:31;4.05;;;0.55;;
54201;SDS011;40108;53.152;5.844;2022-08-05T08:06:57;3.85;;;0.60;;
54201;SDS011;40108;53.152;5.844;2022-08-05T08:09:25;2.22;;;0.40;;
54201;SDS011;40108;53.152;5.844;2022-08-05T08:11:51;3.20;;;0.35;;
54201;SDS011;40108;53.152;5.844;2022-08-05T08:14:16;7.70;;;0.70;;
54201;SDS011;40108;53.152;5.844;2022-08-05T08:16:42;2.40;;;0.40;;
54201;SDS011;40108;53.152;5.844;2022-08-05T08:19:10;3.13;;;0.38;;
54201;SDS011;40108;53.152;5.844;2022-08-05T08:21:36;3.17;;;0.30;;
54201;SDS011;40108;53.152;5.844;2022-08-05T08:24:02;3.08;;;0.77;;
54201;SDS011;40108;53.152;5.844;2022-08-05T08:26:32;3.65;;;0.50;;
54201;SDS011;40108;53.152;5.844;2022-08-05T08:28:58;1.20;;;0.30;;
54201;SDS011;40108;53.152;5.844;2022-08-05T08:31:24;3.00;;;0.40;;
54201;SDS011;40108;53.152;5.844;2022-08-05T08:33:50;2.42;;;0.55;;
54201;SDS011;40108;53.152;5.844;2022-08-05T08:36:16;3.03;;;0.40;;
54201;SDS011;40108;53.152;5.844;2022-08-05T08:38:44;4.00;;;0.60;;
54201;SDS011;40108;53.152;5.844;2022-08-05T08:41:09;2.17;;;0.35;;
54201;SDS011;40108;53.152;5.844;2022-08-05T08:43:38;2.50;;;0.43;;
54201;SDS011;40108;53.152;5.844;2022-08-05T08:46:07;2.45;;;0.28;;
54201;SDS011;40108;53.152;5.844;2022-08-05T08:48:33;2.42;;;0.30;;
54201;SDS011;40108;53.152;5.844;2022-08-05T08:50:59;3.33;;;0.30;;
54201;SDS011;40108;53.152;5.844;2022-08-05T08:53:27;2.53;;;0.38;;
54201;SDS011;40108;53.152;5.844;2022-08-05T08:56:03;4.50;;;0.52;;
54201;SDS011;40108;53.152;5.844;2022-08-05T08:58:29;10.55;;;1.67;;
54201;SDS011;40108;53.152;5.844;2022-08-05T09:00:56;8.00;;;0.50;;
54201;SDS011;40108;53.152;5.844;2022-08-05T09:03:24;2.08;;;0.28;;
54201;SDS011;40108;53.152;5.844;2022-08-05T09:05:52;2.28;;;0.22;;
54201;SDS011;40108;53.152;5.844;2022-08-05T09:08:17;1.95;;;0.30;;
54201;SDS011;40108;53.152;5.844;2022-08-05T09:10:43;1.40;;;0.57;;
54201;SDS011;40108;53.152;5.844;2022-08-05T09:13:13;2.63;;;0.38;;
54201;SDS011;40108;53.152;5.844;2022-08-05T09:15:39;1.55;;;0.30;;
54201;SDS011;40108;53.152;5.844;2022-08-05T09:18:06;2.33;;;0.43;;
54201;SDS011;40108;53.152;5.844;2022-08-05T09:20:35;0.47;;;0.20;;
54201;SDS011;40108;53.152;5.844;2022-08-05T09:23:02;1.75;;;0.30;;
54201;SDS011;40108;53.152;5.844;2022-08-05T09:25:28;3.25;;;0.30;;
54201;SDS011;40108;53.152;5.844;2022-08-05T09:27:54;3.60;;;0.10;;
54201;SDS011;40108;53.152;5.844;2022-08-05T09:30:23;0.63;;;0.20;;
54201;SDS011;40108;53.152;5.844;2022-08-05T09:32:49;1.77;;;0.20;;
54201;SDS011;40108;53.152;5.844;2022-08-05T09:35:16;2.15;;;0.20;;
54201;SDS011;40108;53.152;5.844;2022-08-05T09:37:49;2.38;;;0.20;;
54201;SDS011;40108;53.152;5.844;2022-08-05T09:40:36;1.20;;;0.30;;
54201;SDS011;40108;53.152;5.844;2022-08-05T09:43:05;1.10;;;0.22;;
54201;SDS011;40108;53.152;5.844;2022-08-05T09:45:38;2.90;;;0.20;;
54201;SDS011;40108;53.152;5.844;2022-08-05T09:48:22;0.65;;;0.10;;
54201;SDS011;40108;53.152;5.844;2022-08-05T09:51:00;4.90;;;0.50;;
54201;SDS011;40108;53.152;5.844;2022-08-05T09:53:28;3.03;;;0.30;;
54201;SDS011;40108;53.152;5.844;2022-08-05T09:55:56;5.82;;;0.30;;
54201;SDS011;40108;53.152;5.844;2022-08-05T09:58:24;0.98;;;0.20;;
54201;SDS011;40108;53.152;5.844;2022-08-05T10:00:55;1.95;;;0.20;;
54201;SDS011;40108;53.152;5.844;2022-08-05T10:03:26;4.30;;;1.15;;
54201;SDS011;40108;53.152;5.844;2022-08-05T10:06:00;2.05;;;0.28;;
54201;SDS011;40108;53.152;5.844;2022-08-05T10:08:26;0.63;;;0.13;;
54201;SDS011;40108;53.152;5.844;2022-08-05T10:10:52;2.08;;;0.10;;
54201;SDS011;40108;53.152;5.844;2022-08-05T10:13:25;2.33;;;0.35;;
54201;SDS011;40108;53.152;5.844;2022-08-05T10:15:57;6.53;;;0.30;;
54201;SDS011;40108;53.152;5.844;2022-08-05T10:18:24;3.53;;;0.13;;
54201;SDS011;40108;53.152;5.844;2022-08-05T10:20:53;1.38;;;0.20;;
54201;SDS011;40108;53.152;5.844;2022-08-05T10:23:25;3.30;;;0.45;;
54201;SDS011;40108;53.152;5.844;2022-08-05T10:25:53;1.83;;;0.32;;
54201;SDS011;40108;53.152;5.844;2022-08-05T10:28:20;1.17;;;0.20;;
54201;SDS011;40108;53.152;5.844;2022-08-05T10:30:46;3.33;;;0.30;;
54201;SDS011;40108;53.152;5.844;2022-08-05T10:33:15;0.75;;;0.20;;
54201;SDS011;40108;53.152;5.844;2022-08-05T10:35:41;2.58;;;0.30;;
54201;SDS011;40108;53.152;5.844;2022-08-05T10:38:07;4.63;;;0.38;;
54201;SDS011;40108;53.152;5.844;2022-08-05T10:40:45;0.95;;;0.20;;
54201;SDS011;40108;53.152;5.844;2022-08-05T10:46:18;2.38;;;0.30;;
54201;SDS011;40108;53.152;5.844;2022-08-05T10:48:56;2.00;;;0.30;;
54201;SDS011;40108;53.152;5.844;2022-08-05T10:51:22;2.05;;;0.30;;
54201;SDS011;40108;53.152;5.844;2022-08-05T10:53:52;2.22;;;0.30;;
54201;SDS011;40108;53.152;5.844;2022-08-05T10:56:27;2.35;;;0.38;;
54201;SDS011;40108;53.152;5.844;2022-08-05T11:04:03;3.45;;;0.30;;
54201;SDS011;40108;53.152;5.844;2022-08-05T11:06:31;2.67;;;0.45;;
54201;SDS011;40108;53.152;5.844;2022-08-05T11:09:11;2.40;;;0.30;;
54201;SDS011;40108;53.152;5.844;2022-08-05T11:11:40;2.13;;;0.20;;
54201;SDS011;40108;53.152;5.844;2022-08-05T11:14:08;2.75;;;0.30;;
54201;SDS011;40108;53.152;5.844;2022-08-05T11:16:36;1.67;;;0.22;;
54201;SDS011;40108;53.152;5.844;2022-08-05T11:19:35;1.30;;;0.45;;
54201;SDS011;40108;53.152;5.844;2022-08-05T11:21:55;3.30;;;0.30;;
54201;SDS011;40108;53.152;5.844;2022-08-05T11:24:44;3.03;;;0.30;;
54201;SDS011;40108;53.152;5.844;2022-08-05T11:27:29;2.00;;;0.25;;
54201;SDS011;40108;53.152;5.844;2022-08-05T11:29:59;1.08;;;0.20;;
54201;SDS011;40108;53.152;5.844;2022-08-05T11:32:26;3.80;;;0.40;;
54201;SDS011;40108;53.152;5.844;2022-08-05T11:34:54;9.57;;;0.30;;
54201;SDS011;40108;53.152;5.844;2022-08-05T11:40:06;4.97;;;0.63;;
54201;SDS011;40108;53.152;5.844;2022-08-05T11:42:32;4.97;;;0.40;;
54201;SDS011;40108;53.152;5.844;2022-08-05T11:45:02;1.67;;;0.40;;
54201;SDS011;40108;53.152;5.844;2022-08-05T11:47:31;0.22;;;0.05;;
54201;SDS011;40108;53.152;5.844;2022-08-05T11:49:59;3.85;;;0.32;;
54201;SDS011;40108;53.152;5.844;2022-08-05T11:52:25;3.85;;;0.30;;
54201;SDS011;40108;53.152;5.844;2022-08-05T11:54:52;9.25;;;0.50;;
54201;SDS011;40108;53.152;5.844;2022-08-05T11:57:19;6.18;;;0.40;;
54201;SDS011;40108;53.152;5.844;2022-08-05T11:59:44;4.22;;;0.60;;
54201;SDS011;40108;53.152;5.844;2022-08-05T12:02:11;9.27;;;1.05;;
54201;SDS011;40108;53.152;5.844;2022-08-05T12:04:40;2.25;;;0.17;;
54201;SDS011;40108;53.152;5.844;2022-08-05T12:07:12;4.28;;;0.30;;
54201;SDS011;40108;53.152;5.844;2022-08-05T12:09:42;1.95;;;0.60;;
54201;SDS011;40108;53.152;5.844;2022-08-05T12:12:22;1.70;;;0.40;;
54201;SDS011;40108;53.152;5.844;2022-08-05T12:14:48;3.25;;;0.40;;
54201;SDS011;40108;53.152;5.844;2022-08-05T12:17:14;2.60;;;0.38;;
54201;SDS011;40108;53.152;5.844;2022-08-05T12:19:48;2.80;;;0.30;;
54201;SDS011;40108;53.152;5.844;2022-08-05T12:22:16;3.03;;;0.30;;
54201;SDS011;40108;53.152;5.844;2022-08-05T12:24:44;2.47;;;0.30;;
54201;SDS011;40108;53.152;5.844;2022-08-05T12:27:18;7.28;;;0.40;;
54201;SDS011;40108;53.152;5.844;2022-08-05T12:29:45;5.53;;;0.47;;
54201;SDS011;40108;53.152;5.844;2022-08-05T12:32:22;2.78;;;0.30;;
54201;SDS011;40108;53.152;5.844;2022-08-05T12:34:48;1.88;;;0.30;;
54201;SDS011;40108;53.152;5.844;2022-08-05T12:37:14;1.75;;;0.20;;
54201;SDS011;40108;53.152;5.844;2022-08-05T12:39:41;1.98;;;0.20;;
54201;SDS011;40108;53.152;5.844;2022-08-05T12:42:11;2.92;;;0.30;;
54201;SDS011;40108;53.152;5.844;2022-08-05T12:44:38;1.63;;;0.20;;
54201;SDS011;40108;53.152;5.844;2022-08-05T12:47:04;3.83;;;0.20;;
54201;SDS011;40108;53.152;5.844;2022-08-05T12:49:41;11.98;;;1.05;;
54201;SDS011;40108;53.152;5.844;2022-08-05T12:52:16;4.40;;;0.50;;
54201;SDS011;40108;53.152;5.844;2022-08-05T12:54:43;0.40;;;0.20;;
54201;SDS011;40108;53.152;5.844;2022-08-05T12:57:11;4.10;;;0.20;;
54201;SDS011;40108;53.152;5.844;2022-08-05T12:59:47;7.65;;;0.95;;
54201;SDS011;40108;53.152;5.844;2022-08-05T13:02:17;17.92;;;1.52;;
54201;SDS011;40108;53.152;5.844;2022-08-05T13:04:47;11.82;;;1.17;;
54201;SDS011;40108;53.152;5.844;2022-08-05T13:07:18;11.73;;;1.40;;
54201;SDS011;40108;53.152;5.844;2022-08-05T13:09:50;8.70;;;1.65;;
54201;SDS011;40108;53.152;5.844;2022-08-05T13:12:21;5.80;;;0.80;;
54201;SDS011;40108;53.152;5.844;2022-08-05T13:14:49;5.38;;;0.60;;
54201;SDS011;40108;53.152;5.844;2022-08-05T13:17:23;5.50;;;0.70;;
54201;SDS011;40108;53.152;5.844;2022-08-05T13:22:28;5.32;;;0.45;;
54201;SDS011;40108;53.152;5.844;2022-08-05T13:24:55;3.85;;;0.63;;
54201;SDS011;40108;53.152;5.844;2022-08-05T13:27:32;5.32;;;0.68;;
54201;SDS011;40108;53.152;5.844;2022-08-05T13:29:58;2.97;;;0.50;;
54201;SDS011;40108;53.152;5.844;2022-08-05T13:32:24;5.82;;;0.43;;
54201;SDS011;40108;53.152;5.844;2022-08-05T13:34:52;6.15;;;0.93;;
54201;SDS011;40108;53.152;5.844;2022-08-05T13:37:22;5.28;;;0.60;;
54201;SDS011;40108;53.152;5.844;2022-08-05T13:39:48;4.30;;;0.43;;
54201;SDS011;40108;53.152;5.844;2022-08-05T13:42:18;1.90;;;0.30;;
54201;SDS011;40108;53.152;5.844;2022-08-05T13:44:44;2.80;;;0.30;;
54201;SDS011;40108;53.152;5.844;2022-08-05T13:47:10;1.63;;;0.22;;
54201;SDS011;40108;53.152;5.844;2022-08-05T13:49:40;1.23;;;0.20;;
54201;SDS011;40108;53.152;5.844;2022-08-05T13:52:12;0.47;;;0.25;;
54201;SDS011;40108;53.152;5.844;2022-08-05T13:54:40;2.33;;;0.32;;
54201;SDS011;40108;53.152;5.844;2022-08-05T13:57:07;1.83;;;0.30;;
54201;SDS011;40108;53.152;5.844;2022-08-05T13:59:33;1.52;;;0.25;;
54201;SDS011;40108;53.152;5.844;2022-08-05T14:02:00;2.45;;;0.30;;
54201;SDS011;40108;53.152;5.844;2022-08-05T14:04:27;4.68;;;0.40;;
54201;SDS011;40108;53.152;5.844;2022-08-05T14:07:13;2.00;;;0.40;;
54201;SDS011;40108;53.152;5.844;2022-08-05T14:09:38;1.90;;;0.22;;
54201;SDS011;40108;53.152;5.844;2022-08-05T14:12:05;4.70;;;0.52;;
54201;SDS011;40108;53.152;5.844;2022-08-05T14:14:31;3.53;;;0.55;;
54201;SDS011;40108;53.152;5.844;2022-08-05T14:16:56;6.38;;;1.05;;
54201;SDS011;40108;53.152;5.844;2022-08-05T14:19:22;4.00;;;0.47;;
54201;SDS011;40108;53.152;5.844;2022-08-05T14:21:48;2.13;;;0.40;;
54201;SDS011;40108;53.152;5.844;2022-08-05T14:24:13;1.25;;;0.20;;
54201;SDS011;40108;53.152;5.844;2022-08-05T14:26:39;2.63;;;0.35;;
54201;SDS011;40108;53.152;5.844;2022-08-05T14:29:05;1.67;;;0.20;;
54201;SDS011;40108;53.152;5.844;2022-08-05T14:31:31;3.47;;;0.30;;
54201;SDS011;40108;53.152;5.844;2022-08-05T14:33:57;0.55;;;0.20;;
54201;SDS011;40108;53.152;5.844;2022-08-05T14:36:22;1.75;;;0.30;;
54201;SDS011;40108;53.152;5.844;2022-08-05T14:38:49;3.03;;;0.40;;
54201;SDS011;40108;53.152;5.844;2022-08-05T14:41:15;2.30;;;0.50;;
54201;SDS011;40108;53.152;5.844;2022-08-05T14:43:41;4.72;;;0.60;;
54201;SDS011;40108;53.152;5.844;2022-08-05T14:46:06;4.88;;;0.50;;
54201;SDS011;40108;53.152;5.844;2022-08-05T14:48:32;5.97;;;0.75;;
54201;SDS011;40108;53.152;5.844;2022-08-05T14:50:58;5.63;;;0.50;;
54201;SDS011;40108;53.152;5.844;2022-08-05T14:53:24;2.33;;;0.45;;
54201;SDS011;40108;53.152;5.844;2022-08-05T14:55:49;1.52;;;0.40;;
54201;SDS011;40108;53.152;5.844;2022-08-05T14:58:15;2.25;;;0.32;;
54201;SDS011;40108;53.152;5.844;2022-08-05T15:00:41;1.02;;;0.40;;
54201;SDS011;40108;53.152;5.844;2022-08-05T15:03:06;2.33;;;0.40;;
54201;SDS011;40108;53.152;5.844;2022-08-05T15:05:32;2.20;;;0.20;;
54201;SDS011;40108;53.152;5.844;2022-08-05T15:07:59;4.85;;;0.40;;
54201;SDS011;40108;53.152;5.844;2022-08-05T15:10:26;3.67;;;0.60;;
54201;SDS011;40108;53.152;5.844;2022-08-05T15:12:52;2.08;;;0.50;;
54201;SDS011;40108;53.152;5.844;2022-08-05T15:15:18;2.35;;;0.47;;
54201;SDS011;40108;53.152;5.844;2022-08-05T15:17:43;2.63;;;0.22;;
54201;SDS011;40108;53.152;5.844;2022-08-05T15:20:10;2.25;;;0.32;;
54201;SDS011;40108;53.152;5.844;2022-08-05T15:22:36;1.65;;;0.20;;